Time;durP1;ratioP1;P1;durP2;ratioP2;P2;SDS_P1;SDS_P2;PMS_P1;PMS_P2;Temp;Humidity;BMP_temperature;BMP_pressure;BME280_temperature;BME280_humidity;BME280_pressure;Samples;Min_cycle;Max_cycle;Signal;HPM_P1;HPM_P2
2022/10/08 00:01:00;;;;;;;14.38;2.92;;;12.90;99.90;;;;;;4976963;28;211526;-70
2022/10/08 00:03:29;;;;;;;13.38;2.50;;;13.00;99.90;;;;;;5027354;28;20057;-70
2022/10/08 00:06:01;;;;;;;11.95;2.80;;;12.90;99.90;;;;;;4979180;28;228495;-69
2022/10/08 00:08:29;;;;;;;13.65;2.65;;;12.90;99.90;;;;;;5019060;28;20064;-70
2022/10/08 00:10:59;;;;;;;16.60;2.90;;;12.90;99.90;;;;;;4975511;28;206556;-70
2022/10/08 00:13:27;;;;;;;14.63;2.65;;;12.90;99.90;;;;;;5020762;28;20644;-69
2022/10/08 00:15:59;;;;;;;12.93;2.90;;;12.90;99.90;;;;;;4961902;28;221052;-70
2022/10/08 00:18:28;;;;;;;15.13;3.00;;;12.90;99.90;;;;;;5006582;28;20050;-69
2022/10/08 00:21:15;;;;;;;12.02;2.30;;;12.80;99.90;;;;;;4979330;28;206429;-70
2022/10/08 00:23:45;;;;;;;11.05;2.30;;;12.80;99.90;;;;;;5035073;28;20510;-70
2022/10/08 00:26:13;;;;;;;15.18;2.88;;;12.80;99.90;;;;;;4987539;28;211551;-69
2022/10/08 00:28:44;;;;;;;12.45;2.75;;;12.80;99.90;;;;;;5019799;28;20061;-70
2022/10/08 00:31:29;;;;;;;13.63;2.30;;;12.80;99.90;;;;;;4974292;28;253647;-70
2022/10/08 00:33:57;;;;;;;12.07;2.42;;;12.80;99.90;;;;;;5025289;28;20045;-70
2022/10/08 00:36:26;;;;;;;13.30;2.30;;;12.80;99.90;;;;;;4945977;28;206298;-69
2022/10/08 00:38:57;;;;;;;11.35;2.30;;;12.80;99.90;;;;;;5029565;28;20037;-68
2022/10/08 00:41:26;;;;;;;11.63;2.15;;;12.80;99.90;;;;;;4988099;28;222868;-69
2022/10/08 00:43:54;;;;;;;13.20;2.70;;;12.80;99.90;;;;;;5024346;28;20054;-68
2022/10/08 00:46:33;;;;;;;13.80;2.50;;;12.80;99.90;;;;;;4985929;28;212483;-69
2022/10/08 00:49:13;;;;;;;11.05;2.00;;;12.80;99.90;;;;;;5024692;28;20057;-69
2022/10/08 00:51:48;;;;;;;11.88;2.35;;;12.80;99.90;;;;;;4978928;28;205658;-69
2022/10/08 00:54:17;;;;;;;13.52;2.33;;;12.80;99.90;;;;;;4987393;28;214400;-71
2022/10/08 00:56:43;;;;;;;11.35;2.15;;;12.80;99.90;;;;;;5021571;28;20046;-72
2022/10/08 00:59:11;;;;;;;13.77;2.50;;;12.80;99.90;;;;;;5015906;28;211968;-72
2022/10/08 01:01:41;;;;;;;13.68;2.20;;;12.80;99.90;;;;;;4973853;28;189569;-71
2022/10/08 01:04:09;;;;;;;11.63;2.13;;;12.70;99.90;;;;;;5024446;28;20060;-72
2022/10/08 01:06:57;;;;;;;10.52;1.60;;;12.60;99.90;;;;;;4963427;28;218927;-73
2022/10/08 01:09:40;;;;;;;10.43;1.77;;;12.60;99.90;;;;;;4981729;28;240369;-73
2022/10/08 01:12:49;;;;;;;13.85;2.17;;;12.60;99.90;;;;;;5018720;28;20068;-73
2022/10/08 01:15:40;;;;;;;13.60;2.08;;;12.50;99.90;;;;;;4911911;28;206206;-75
2022/10/08 01:18:09;;;;;;;10.13;1.70;;;12.40;99.90;;;;;;4954617;28;20058;-76
2022/10/08 01:20:41;;;;;;;12.15;2.10;;;12.40;99.90;;;;;;4934998;28;232418;-75
2022/10/08 01:23:38;;;;;;;8.82;1.60;;;12.30;99.90;;;;;;4962264;28;20054;-74
2022/10/08 01:26:17;;;;;;;11.13;1.92;;;12.30;99.90;;;;;;4916870;28;219776;-73
2022/10/08 01:29:05;;;;;;;7.38;1.55;;;12.30;99.90;;;;;;4949110;28;20046;-73
2022/10/08 01:31:44;;;;;;;11.73;1.70;;;12.30;99.90;;;;;;4898212;28;178203;-74
2022/10/08 01:34:26;;;;;;;9.75;1.80;;;12.30;99.90;;;;;;4943505;28;45959;-74
2022/10/08 01:36:55;;;;;;;9.73;1.90;;;12.20;99.90;;;;;;4933871;28;209749;-74
2022/10/08 01:39:27;;;;;;;8.73;1.80;;;12.20;99.90;;;;;;4923451;28;208783;-72
2022/10/08 01:41:57;;;;;;;10.75;2.00;;;12.20;99.90;;;;;;4945415;28;20160;-73
2022/10/08 01:44:32;;;;;;;11.32;2.30;;;12.20;99.90;;;;;;4931557;28;211779;-73
2022/10/08 01:47:07;;;;;;;10.63;2.45;;;12.20;99.90;;;;;;4957094;28;20054;-72
2022/10/08 01:49:42;;;;;;;10.70;2.20;;;12.10;99.90;;;;;;4927434;28;218785;-73
2022/10/08 01:52:43;;;;;;;10.68;2.17;;;12.10;99.90;;;;;;4986899;28;20037;-72
2022/10/08 01:55:20;;;;;;;10.93;2.00;;;12.10;99.90;;;;;;4911418;28;207592;-72
2022/10/08 01:57:47;;;;;;;11.20;2.47;;;12.10;99.90;;;;;;4958755;28;20054;-72
2022/10/08 02:00:14;;;;;;;8.88;2.03;;;12.10;99.90;;;;;;4910970;28;209432;-72
2022/10/08 02:02:41;;;;;;;10.73;2.30;;;12.00;99.90;;;;;;4958757;28;20049;-71
2022/10/08 02:05:09;;;;;;;12.27;2.33;;;12.00;99.90;;;;;;4919463;28;219996;-71
2022/10/08 02:07:41;;;;;;;12.30;2.30;;;12.00;99.90;;;;;;4953993;28;20046;-72
2022/10/08 02:10:12;;;;;;;10.32;2.40;;;12.00;99.90;;;;;;4933365;28;216953;-72
2022/10/08 02:12:45;;;;;;;14.52;3.10;;;12.00;99.90;;;;;;4971951;28;20416;-73
2022/10/08 02:15:21;;;;;;;14.73;3.30;;;12.00;99.90;;;;;;4911099;28;218753;-72
2022/10/08 02:17:58;;;;;;;15.68;3.17;;;12.00;99.90;;;;;;4976767;28;20061;-73
2022/10/08 02:20:46;;;;;;;11.70;2.97;;;11.90;99.90;;;;;;4917773;28;203293;-72
2022/10/08 02:23:33;;;;;;;13.43;3.60;;;11.80;99.90;;;;;;4965176;28;20618;-72
2022/10/08 02:26:01;;;;;;;12.23;3.65;;;11.80;99.90;;;;;;4933825;28;208835;-72
2022/10/08 02:28:43;;;;;;;13.48;3.47;;;11.80;99.90;;;;;;4965406;28;20050;-72
2022/10/08 02:31:21;;;;;;;13.60;3.40;;;11.80;99.90;;;;;;4954076;28;123531;-73
2022/10/08 02:33:56;;;;;;;11.95;3.60;;;11.90;99.90;;;;;;5019561;28;20064;-72
2022/10/08 02:36:28;;;;;;;13.82;3.38;;;11.80;99.90;;;;;;4980328;28;216568;-72
2022/10/08 02:39:02;;;;;;;12.70;4.03;;;11.80;99.90;;;;;;5018719;28;20049;-72
2022/10/08 02:41:36;;;;;;;14.60;3.58;;;11.80;99.90;;;;;;4972462;28;196963;-72
2022/10/08 02:44:08;;;;;;;12.85;3.95;;;11.80;99.90;;;;;;5024349;28;20060;-72
2022/10/08 02:46:45;;;;;;;12.88;3.60;;;11.80;99.90;;;;;;4950122;28;210143;-72
2022/10/08 02:49:26;;;;;;;13.20;3.67;;;11.70;99.90;;;;;;5003561;28;205160;-72
2022/10/08 02:51:56;;;;;;;12.80;3.63;;;11.70;99.90;;;;;;4967465;28;50517;-72
2022/10/08 02:54:23;;;;;;;16.35;4.28;;;11.70;99.90;;;;;;4979615;28;220680;-72
2022/10/08 02:56:56;;;;;;;13.82;3.72;;;11.70;99.90;;;;;;5001824;28;20550;-73
2022/10/08 02:59:22;;;;;;;11.87;3.50;;;11.70;99.90;;;;;;4982753;28;214677;-71
2022/10/08 03:02:01;;;;;;;14.00;3.83;;;11.60;99.90;;;;;;5025802;28;20049;-74
2022/10/08 03:04:31;;;;;;;;;;;11.60;99.90;;;;;;4967037;28;207599;-72
2022/10/08 03:06:59;;;;;;;13.23;3.50;;;11.60;99.90;;;;;;5000847;28;19932;-71
2022/10/08 03:09:31;;;;;;;12.37;3.17;;;11.50;99.90;;;;;;4969037;28;443521;-72
2022/10/08 03:11:59;;;;;;;18.20;3.53;;;11.50;99.90;;;;;;5040136;28;20050;-72
2022/10/08 03:14:27;;;;;;;14.50;3.78;;;11.50;99.90;;;;;;4981238;28;206749;-72
2022/10/08 03:16:53;;;;;;;10.30;3.03;;;11.40;99.90;;;;;;5025577;28;20891;-71
2022/10/08 03:19:20;;;;;;;14.05;3.60;;;11.40;99.90;;;;;;4977528;28;214786;-72
2022/10/08 03:21:51;;;;;;;14.45;3.47;;;11.40;99.90;;;;;;5007076;28;20057;-72
2022/10/08 03:24:17;;;;;;;18.42;3.90;;;11.40;99.90;;;;;;4981093;28;213304;-72
2022/10/08 03:26:43;;;;;;;13.25;3.50;;;11.30;99.90;;;;;;5019089;28;20050;-71
2022/10/08 03:29:10;;;;;;;17.20;3.67;;;11.30;99.90;;;;;;5018986;28;213076;-71
2022/10/08 03:31:36;;;;;;;14.65;3.53;;;11.30;99.90;;;;;;4987540;28;205410;-71
2022/10/08 03:34:03;;;;;;;14.70;4.03;;;11.40;99.90;;;;;;5024318;28;20049;-71
2022/10/08 03:36:29;;;;;;;13.90;3.40;;;11.40;99.90;;;;;;4994275;28;214934;-72
2022/10/08 03:38:55;;;;;;;14.65;3.85;;;11.40;99.90;;;;;;5021697;28;20064;-72
2022/10/08 03:41:21;;;;;;;16.25;3.53;;;11.40;99.90;;;;;;4966585;28;216543;-71
2022/10/08 03:43:47;;;;;;;13.80;3.50;;;11.40;99.90;;;;;;5027259;28;20069;-72
2022/10/08 03:46:14;;;;;;;12.00;3.50;;;11.30;99.90;;;;;;4986656;28;213916;-73
2022/10/08 03:48:42;;;;;;;14.15;3.70;;;11.30;99.90;;;;;;5022756;28;20582;-72
2022/10/08 03:51:13;;;;;;;13.55;3.38;;;11.30;99.90;;;;;;4966198;28;212224;-72
2022/10/08 03:53:41;;;;;;;15.25;3.00;;;11.20;99.90;;;;;;5027023;28;20431;-73
2022/10/08 03:56:13;;;;;;;14.60;3.28;;;11.20;99.90;;;;;;4969424;28;190956;-73
2022/10/08 03:58:39;;;;;;;14.25;3.25;;;11.20;99.90;;;;;;5026348;28;20076;-72
2022/10/08 04:01:09;;;;;;;16.45;3.13;;;11.20;99.90;;;;;;4995724;28;211794;-73
2022/10/08 04:03:37;;;;;;;17.48;3.55;;;11.20;99.90;;;;;;5027445;28;20502;-73
2022/10/08 04:06:07;;;;;;;18.60;3.75;;;11.30;99.90;;;;;;4982195;28;218817;-72
2022/10/08 04:08:34;;;;;;;16.48;3.63;;;11.30;99.90;;;;;;5029275;28;20045;-72
2022/10/08 04:11:05;;;;;;;11.48;3.50;;;11.20;99.90;;;;;;4981879;28;211370;-72
2022/10/08 04:13:35;;;;;;;;;;;11.20;99.90;;;;;;5026349;28;20049;-72
2022/10/08 04:16:03;;;;;;;15.13;3.70;;;11.20;99.90;;;;;;4994941;28;209823;-72
2022/10/08 04:18:30;;;;;;;14.93;4.10;;;11.20;99.90;;;;;;5021890;28;20053;-73
2022/10/08 04:21:01;;;;;;;16.13;3.90;;;11.20;99.90;;;;;;4980676;28;209538;-72
2022/10/08 04:23:29;;;;;;;14.98;4.30;;;11.20;99.90;;;;;;5019162;28;20061;-72
2022/10/08 04:25:59;;;;;;;16.25;4.15;;;11.10;99.90;;;;;;4965111;28;209103;-72
2022/10/08 04:28:27;;;;;;;11.52;4.22;;;11.10;99.90;;;;;;5020953;28;20054;-72
2022/10/08 04:31:08;;;;;;;17.88;4.53;;;11.10;99.90;;;;;;4974257;28;138874;-72
2022/10/08 04:33:34;;;;;;;;;;;11.10;99.90;;;;;;5027215;28;20053;-72
2022/10/08 04:36:05;;;;;;;14.55;4.63;;;11.10;99.90;;;;;;4963615;28;207658;-73
2022/10/08 04:38:32;;;;;;;19.85;4.57;;;11.00;99.90;;;;;;5024662;28;20422;-72
2022/10/08 04:41:18;;;;;;;20.20;4.63;;;11.00;99.90;;;;;;4967135;28;241272;-74
2022/10/08 04:43:45;;;;;;;16.08;4.60;;;11.00;99.90;;;;;;5028035;28;20049;-72
2022/10/08 04:46:15;;;;;;;15.63;4.32;;;10.90;99.90;;;;;;4974437;28;217843;-72
2022/10/08 04:48:46;;;;;;;18.10;4.97;;;11.00;99.90;;;;;;5011317;28;20053;-72
2022/10/08 04:51:13;;;;;;;14.15;4.40;;;10.90;99.90;;;;;;4966961;28;213493;-73
2022/10/08 04:53:39;;;;;;;15.07;4.43;;;11.00;99.90;;;;;;5022332;28;21075;-72
2022/10/08 04:56:20;;;;;;;17.20;4.18;;;10.90;99.90;;;;;;4980858;28;225906;-72
2022/10/08 04:58:47;;;;;;;17.77;4.25;;;10.90;99.90;;;;;;5027271;28;20053;-73
2022/10/08 05:01:16;;;;;;;15.98;4.00;;;10.90;99.90;;;;;;4974736;28;238534;-72
2022/10/08 05:03:45;;;;;;;16.23;4.00;;;10.90;99.90;;;;;;5022798;28;20057;-72
2022/10/08 05:06:13;;;;;;;17.52;3.92;;;10.90;99.90;;;;;;4982612;28;218838;-72
2022/10/08 05:08:40;;;;;;;17.42;4.38;;;10.90;99.90;;;;;;5021010;28;20049;-72
2022/10/08 05:11:09;;;;;;;13.85;3.90;;;10.80;99.90;;;;;;4978132;28;213125;-72
2022/10/08 05:13:36;;;;;;;20.27;3.90;;;10.80;99.90;;;;;;5022457;28;20060;-73
2022/10/08 05:16:06;;;;;;;19.42;4.03;;;10.80;99.90;;;;;;4974239;28;212606;-73
2022/10/08 05:18:34;;;;;;;17.55;4.15;;;10.80;99.90;;;;;;5026993;28;20045;-73
2022/10/08 05:21:11;;;;;;;20.90;3.90;;;10.70;99.90;;;;;;4994750;28;227652;-73
2022/10/08 05:23:38;;;;;;;14.05;3.40;;;10.70;99.90;;;;;;5009760;28;20053;-72
2022/10/08 05:26:19;;;;;;;18.70;3.78;;;10.70;99.90;;;;;;4962723;28;199339;-74
2022/10/08 05:28:46;;;;;;;19.10;3.87;;;10.70;99.90;;;;;;5026441;28;20053;-72
2022/10/08 05:31:21;;;;;;;18.20;3.65;;;10.70;99.90;;;;;;4978475;28;207907;-72
2022/10/08 05:33:47;;;;;;;15.73;3.50;;;10.70;99.90;;;;;;5024521;28;20060;-72
2022/10/08 05:36:29;;;;;;;15.23;3.83;;;10.70;99.90;;;;;;4974557;28;210695;-72
2022/10/08 05:38:55;;;;;;;16.10;3.60;;;10.60;99.90;;;;;;5028746;28;20067;-72
2022/10/08 05:41:24;;;;;;;15.85;3.78;;;10.60;99.90;;;;;;4959818;28;224315;-73
2022/10/08 05:43:52;;;;;;;18.55;4.18;;;10.60;99.90;;;;;;5024485;28;20053;-73
2022/10/08 05:46:18;;;;;;;15.48;3.50;;;10.60;99.90;;;;;;4954596;28;208620;-73
2022/10/08 05:48:45;;;;;;;15.80;3.70;;;10.50;99.90;;;;;;5024474;28;20514;-72
2022/10/08 05:51:13;;;;;;;17.25;3.63;;;10.50;99.90;;;;;;4970669;28;212126;-73
2022/10/08 05:53:43;;;;;;;15.85;3.83;;;10.50;99.90;;;;;;5023970;28;20045;-72
2022/10/08 05:56:10;;;;;;;20.88;3.50;;;10.50;99.90;;;;;;4964977;28;209028;-71
2022/10/08 05:58:38;;;;;;;19.13;3.28;;;10.50;99.90;;;;;;5035814;28;20045;-73
2022/10/08 06:01:07;;;;;;;19.95;3.50;;;10.40;99.90;;;;;;4961600;28;204850;-73
2022/10/08 06:03:33;;;;;;;18.08;3.40;;;10.40;99.90;;;;;;5025117;28;20033;-73
2022/10/08 06:06:04;;;;;;;18.05;3.17;;;10.40;99.90;;;;;;4969097;28;248968;-73
2022/10/08 06:08:31;;;;;;;;;;;10.40;99.90;;;;;;5025100;28;20038;-72
2022/10/08 06:10:58;;;;;;;16.95;3.08;;;10.40;99.90;;;;;;4983010;28;244111;-72
2022/10/08 06:13:25;;;;;;;19.88;3.60;;;10.40;99.90;;;;;;5021986;28;20045;-72
2022/10/08 06:16:00;;;;;;;16.92;3.10;;;10.40;99.90;;;;;;4986096;28;219529;-73
2022/10/08 06:18:30;;;;;;;15.88;3.20;;;10.50;99.90;;;;;;5024223;28;20064;-73
2022/10/08 06:21:05;;;;;;;16.45;3.03;;;10.50;99.90;;;;;;4986163;28;213837;-72
2022/10/08 06:23:31;;;;;;;16.95;3.10;;;10.50;99.90;;;;;;5024246;28;20053;-74
2022/10/08 06:26:08;;;;;;;15.50;3.03;;;10.50;99.90;;;;;;4946527;28;206970;-72
2022/10/08 06:28:38;;;;;;;18.50;3.33;;;10.50;99.90;;;;;;5005016;28;20064;-73
2022/10/08 06:31:06;;;;;;;14.27;2.88;;;10.50;99.90;;;;;;4967506;28;206201;-73
2022/10/08 06:33:33;;;;;;;15.88;3.25;;;10.50;99.90;;;;;;5017352;28;20541;-73
2022/10/08 06:36:19;;;;;;;17.05;3.28;;;10.40;99.90;;;;;;4963694;28;167472;-73
2022/10/08 06:38:56;;;;;;;12.20;2.92;;;10.40;99.90;;;;;;5016387;28;20617;-73
2022/10/08 06:41:23;;;;;;;16.23;3.00;;;10.40;99.90;;;;;;4943155;28;206107;-72
2022/10/08 06:43:50;;;;;;;17.25;3.13;;;10.50;99.90;;;;;;5018623;28;20053;-71
2022/10/08 06:46:17;;;;;;;15.20;3.05;;;10.50;99.90;;;;;;4967276;28;218639;-72
2022/10/08 06:48:44;;;;;;;18.35;2.70;;;10.50;99.90;;;;;;5018172;28;20064;-73
2022/10/08 06:51:13;;;;;;;14.07;2.50;;;10.60;99.90;;;;;;4976111;28;208154;-72
2022/10/08 06:53:40;;;;;;;16.90;2.65;;;10.60;99.90;;;;;;5019094;28;20052;-73
2022/10/08 06:56:16;;;;;;;16.73;2.75;;;10.70;99.90;;;;;;4973806;28;226483;-72
2022/10/08 06:58:43;;;;;;;15.93;2.50;;;10.80;99.90;;;;;;5024362;28;20503;-73
2022/10/08 07:01:13;;;;;;;19.00;3.00;;;10.80;99.90;;;;;;4976551;28;163799;-72
2022/10/08 07:03:39;;;;;;;12.90;3.00;;;10.90;99.90;;;;;;5023756;28;20124;-74
2022/10/08 07:06:08;;;;;;;15.68;2.60;;;11.00;99.90;;;;;;4981401;28;206524;-74
2022/10/08 07:08:35;;;;;;;17.02;2.80;;;11.10;99.90;;;;;;5017752;28;20061;-73
2022/10/08 07:11:09;;;;;;;13.15;2.50;;;11.10;99.90;;;;;;4966210;28;227138;-73
2022/10/08 07:13:36;;;;;;;15.75;2.55;;;11.20;99.90;;;;;;5020710;28;20064;-72
2022/10/08 07:16:07;;;;;;;17.88;2.50;;;11.20;99.90;;;;;;4983926;28;226199;-74
2022/10/08 07:18:34;;;;;;;18.38;2.55;;;11.20;99.90;;;;;;5018834;28;20060;-73
2022/10/08 07:21:01;;;;;;;14.10;2.80;;;11.20;99.90;;;;;;4964200;28;207741;-73
2022/10/08 07:23:27;;;;;;;17.20;2.45;;;11.20;99.90;;;;;;5022669;28;20065;-72
2022/10/08 07:25:59;;;;;;;20.40;2.50;;;11.20;99.90;;;;;;4974565;28;197218;-72
2022/10/08 07:28:29;;;;;;;19.13;3.15;;;11.20;99.90;;;;;;5022559;28;20053;-72
2022/10/08 07:30:55;;;;;;;21.35;2.55;;;11.20;99.90;;;;;;4974599;28;85726;-72
2022/10/08 07:33:21;;;;;;;23.30;2.70;;;11.30;99.90;;;;;;5009468;28;20061;-73
2022/10/08 07:35:50;;;;;;;18.55;3.13;;;11.30;99.90;;;;;;4961518;28;210770;-72
2022/10/08 07:38:17;;;;;;;22.75;2.55;;;11.40;99.90;;;;;;5016029;28;20053;-72
2022/10/08 07:40:45;;;;;;;14.27;2.15;;;11.40;99.90;;;;;;4975428;28;206898;-72
2022/10/08 07:43:12;;;;;;;14.43;2.35;;;11.50;99.90;;;;;;5016034;28;21684;-73
2022/10/08 07:45:43;;;;;;;15.60;2.00;;;11.50;99.90;;;;;;4997956;28;20045;-72
2022/10/08 07:48:09;;;;;;;14.40;2.42;;;11.60;99.90;;;;;;5023911;28;20058;-73
2022/10/08 07:50:36;;;;;;;14.60;2.20;;;11.60;99.90;;;;;;5022753;28;20069;-73
2022/10/08 07:53:02;;;;;;;19.67;2.25;;;11.70;99.90;;;;;;5023766;28;20053;-72
2022/10/08 07:55:28;;;;;;;14.32;2.33;;;11.70;99.90;;;;;;4987916;28;222095;-73
2022/10/08 07:57:54;;;;;;;14.38;2.10;;;11.80;99.90;;;;;;5025504;28;20050;-72
2022/10/08 08:00:21;;;;;;;15.43;2.45;;;11.90;99.90;;;;;;4984289;28;210518;-72
2022/10/08 08:02:48;;;;;;;14.38;2.47;;;11.90;99.90;;;;;;5001700;28;20492;-73
2022/10/08 08:05:14;;;;;;;15.10;2.22;;;12.00;99.90;;;;;;4988569;28;206453;-72
2022/10/08 08:07:43;;;;;;;14.07;2.13;;;12.10;99.90;;;;;;5028970;28;20049;-71
2022/10/08 08:10:09;;;;;;;15.88;2.28;;;12.10;99.90;;;;;;5022735;28;20064;-74
2022/10/08 08:12:35;;;;;;;15.32;2.17;;;12.20;99.90;;;;;;5024376;28;20531;-73
2022/10/08 08:15:01;;;;;;;15.60;2.05;;;12.30;99.90;;;;;;5026000;28;20394;-73
2022/10/08 08:17:28;;;;;;;14.68;1.98;;;12.30;99.90;;;;;;5023431;28;20058;-75
2022/10/08 08:19:57;;;;;;;13.93;2.30;;;12.40;99.90;;;;;;5002987;28;20053;-73
2022/10/08 08:22:23;;;;;;;14.52;2.10;;;12.40;99.90;;;;;;5021900;28;20068;-71
2022/10/08 08:24:49;;;;;;;16.40;2.08;;;12.50;99.90;;;;;;5004183;28;20041;-73
2022/10/08 08:27:16;;;;;;;13.87;1.80;;;12.50;99.90;;;;;;4970872;28;231262;-73
2022/10/08 08:29:43;;;;;;;13.82;2.00;;;12.60;99.90;;;;;;5002505;28;20080;-71
2022/10/08 08:32:09;;;;;;;14.60;1.70;;;12.60;99.90;;;;;;5005190;28;205140;-72
2022/10/08 08:34:35;;;;;;;14.57;2.22;;;12.70;99.90;;;;;;5004350;28;71472;-72
2022/10/08 08:37:01;;;;;;;16.52;2.30;;;12.70;99.90;;;;;;5023448;28;20068;-72
2022/10/08 08:39:28;;;;;;;18.73;2.20;;;12.80;99.90;;;;;;4952098;28;215918;-72
2022/10/08 08:41:59;;;;;;;13.73;1.65;;;12.80;99.90;;;;;;5028598;28;20053;-73
2022/10/08 08:44:31;;;;;;;16.15;2.13;;;13.00;99.90;;;;;;4980592;28;211595;-72
2022/10/08 08:46:59;;;;;;;12.15;2.13;;;13.00;99.90;;;;;;5026483;28;20430;-73
2022/10/08 08:49:51;;;;;;;13.68;1.67;;;13.00;99.90;;;;;;4956074;28;207575;-72
2022/10/08 08:52:23;;;;;;;9.83;1.60;;;13.00;99.90;;;;;;4969702;28;222164;-72
2022/10/08 08:54:52;;;;;;;12.25;1.60;;;13.10;99.90;;;;;;5023498;28;20057;-72
2022/10/08 08:57:36;;;;;;;11.65;1.85;;;13.20;99.90;;;;;;4976316;28;211347;-73
2022/10/08 09:00:16;;;;;;;12.57;1.92;;;13.20;99.90;;;;;;5001132;28;20061;-73
2022/10/08 09:03:11;;;;;;;15.07;1.92;;;13.30;99.90;;;;;;4967018;28;208836;-73
2022/10/08 09:05:41;;;;;;;14.77;1.75;;;13.30;99.90;;;;;;5022933;28;20049;-72
2022/10/08 09:08:19;;;;;;;11.47;1.43;;;13.40;99.90;;;;;;4985325;28;225009;-73
2022/10/08 09:10:58;;;;;;;12.63;1.70;;;13.50;99.90;;;;;;5031728;28;20057;-73
2022/10/08 09:13:47;;;;;;;9.30;1.23;;;13.60;99.90;;;;;;4971732;28;207552;-73
2022/10/08 09:16:14;;;;;;;9.05;1.40;;;13.60;99.90;;;;;;5025677;28;20104;-73
2022/10/08 09:18:49;;;;;;;13.57;1.70;;;13.70;99.90;;;;;;4956330;28;212643;-73
2022/10/08 09:21:17;;;;;;;11.93;1.95;;;13.90;99.90;;;;;;5026591;28;20057;-72
2022/10/08 09:23:44;;;;;;;11.07;1.20;;;14.00;99.90;;;;;;4975550;28;243535;-73
2022/10/08 09:26:20;;;;;;;11.63;1.63;;;14.20;99.90;;;;;;5018036;28;20050;-73
2022/10/08 09:28:54;;;;;;;9.73;1.10;;;14.20;99.90;;;;;;4999888;28;237138;-72
2022/10/08 09:31:23;;;;;;;10.30;1.35;;;14.30;99.90;;;;;;5038633;28;20057;-72
2022/10/08 09:34:14;;;;;;;9.88;1.60;;;14.40;99.90;;;;;;4973408;28;242308;-74
2022/10/08 09:37:03;;;;;;;7.75;1.08;;;14.40;99.90;;;;;;4966328;28;20085;-72
2022/10/08 09:39:37;;;;;;;9.38;1.17;;;14.30;99.90;;;;;;4934000;28;214265;-73
2022/10/08 09:42:06;;;;;;;11.13;1.20;;;14.30;99.90;;;;;;4966005;28;20054;-73
2022/10/08 09:44:45;;;;;;;11.25;1.25;;;14.20;99.90;;;;;;4897966;28;263828;-73
2022/10/08 09:47:17;;;;;;;12.07;1.50;;;14.10;99.90;;;;;;4939979;28;80964;-74
2022/10/08 09:49:48;;;;;;;11.75;1.50;;;14.20;99.90;;;;;;4932727;28;232201;-74
2022/10/08 09:52:25;;;;;;;13.57;1.63;;;14.20;99.90;;;;;;4929363;28;206814;-73
2022/10/08 09:54:59;;;;;;;9.82;1.50;;;14.30;99.90;;;;;;4964703;28;20054;-75
2022/10/08 09:57:26;;;;;;;15.65;1.95;;;14.30;99.90;;;;;;4932664;28;205828;-73
2022/10/08 09:59:57;;;;;;;11.70;1.30;;;14.30;99.90;;;;;;4965266;28;20433;-74
2022/10/08 10:02:36;;;;;;;15.90;1.65;;;14.30;99.90;;;;;;4934387;28;206781;-71
2022/10/08 10:05:05;;;;;;;14.63;1.60;;;14.40;99.90;;;;;;4980615;28;20058;-73
2022/10/08 10:07:41;;;;;;;13.40;1.88;;;14.40;99.90;;;;;;4918608;28;209171;-73
2022/10/08 10:10:18;;;;;;;14.35;1.60;;;14.50;99.90;;;;;;4964340;28;20050;-73
2022/10/08 10:12:48;;;;;;;12.75;1.42;;;14.50;99.90;;;;;;4940603;28;173417;-72
2022/10/08 10:15:20;;;;;;;12.05;1.30;;;14.50;99.90;;;;;;5014439;28;20100;-75
2022/10/08 10:18:14;;;;;;;11.77;1.33;;;14.50;99.90;;;;;;4983209;28;80684;-75
2022/10/08 10:20:50;;;;;;;10.30;1.50;;;14.80;99.90;;;;;;5024231;28;20045;-74
2022/10/08 10:23:29;;;;;;;11.23;1.75;;;15.30;99.90;;;;;;4976501;28;225422;-73
2022/10/08 10:26:20;;;;;;;11.05;1.60;;;15.50;99.90;;;;;;5025057;28;20050;-73
2022/10/08 10:28:55;;;;;;;9.63;1.20;;;15.20;99.90;;;;;;4980140;28;213857;-74
2022/10/08 10:31:35;;;;;;;11.35;1.30;;;15.20;99.90;;;;;;5024879;28;20561;-73
2022/10/08 10:34:05;;;;;;;10.77;1.60;;;15.90;99.50;;;;;;4981200;28;213185;-74
2022/10/08 10:36:35;;;;;;;10.00;1.30;;;16.30;99.00;;;;;;5021952;28;20129;-76
2022/10/08 10:39:25;;;;;;;9.90;1.50;;;16.90;99.00;;;;;;4974977;28;199192;-74
2022/10/08 10:41:57;;;;;;;10.93;1.52;;;17.50;99.90;;;;;;5039202;28;20049;-73
2022/10/08 10:44:35;;;;;;;13.00;1.50;;;17.90;99.30;;;;;;4977419;28;222589;-73
2022/10/08 10:47:02;;;;;;;9.82;1.17;;;17.60;96.40;;;;;;5024191;28;20049;-73
2022/10/08 10:49:36;;;;;;;9.13;1.25;;;17.60;95.00;;;;;;4960841;28;212411;-74
2022/10/08 10:52:37;;;;;;;7.72;1.08;;;17.80;95.40;;;;;;5026914;28;20049;-73
2022/10/08 10:55:18;;;;;;;12.38;1.70;;;18.10;95.30;;;;;;4961533;28;206184;-74
2022/10/08 10:57:44;;;;;;;;;;;18.10;95.10;;;;;;4968666;28;203944;-74
2022/10/08 11:00:24;;;;;;;10.00;1.30;;;18.30;95.20;;;;;;5023292;28;19976;-74
2022/10/08 11:03:01;;;;;;;9.13;1.27;;;18.50;96.10;;;;;;4975581;28;220748;-75
2022/10/08 11:05:31;;;;;;;10.45;1.27;;;18.80;96.40;;;;;;5035856;28;20037;-76
2022/10/08 11:08:07;;;;;;;8.75;1.40;;;19.10;94.30;;;;;;4987654;28;211741;-74
2022/10/08 11:11:04;;;;;;;10.75;1.70;;;19.00;93.20;;;;;;5023554;28;20057;-76
2022/10/08 11:13:48;;;;;;;11.25;1.70;;;19.10;93.80;;;;;;4978333;28;206272;-74
2022/10/08 11:16:20;;;;;;;11.88;1.75;;;19.50;95.90;;;;;;5029420;28;20045;-76
2022/10/08 11:18:54;;;;;;;9.50;1.45;;;19.80;93.70;;;;;;4987582;28;222216;-74
2022/10/08 11:22:01;;;;;;;9.48;1.70;;;19.60;94.20;;;;;;5015595;28;20057;-73
2022/10/08 11:24:49;;;;;;;11.38;1.65;;;19.90;94.80;;;;;;4940859;28;208537;-74
2022/10/08 11:27:34;;;;;;;9.90;1.65;;;20.10;92.70;;;;;;4927777;28;159383;-74
2022/10/08 11:30:17;;;;;;;11.57;1.83;;;20.20;94.10;;;;;;4971268;28;20795;-74
2022/10/08 11:32:57;;;;;;;10.13;1.60;;;20.50;92.10;;;;;;4922235;28;73241;-72
2022/10/08 11:35:53;;;;;;;11.98;1.83;;;20.30;91.90;;;;;;4961898;28;20065;-73
2022/10/08 11:38:47;;;;;;;10.85;1.80;;;20.70;91.80;;;;;;4916456;28;229244;-73
2022/10/08 11:41:26;;;;;;;11.57;1.70;;;20.20;93.30;;;;;;4966405;28;20435;-74
2022/10/08 11:44:02;;;;;;;12.25;1.80;;;19.40;92.70;;;;;;4920329;28;210360;-72
2022/10/08 11:46:35;;;;;;;12.90;1.70;;;19.50;93.70;;;;;;4972087;28;20377;-75
2022/10/08 11:49:10;;;;;;;12.60;1.95;;;19.80;93.40;;;;;;4908992;28;209752;-72
2022/10/08 11:51:45;;;;;;;9.75;1.50;;;19.30;93.40;;;;;;4968465;28;20050;-73
2022/10/08 11:54:14;;;;;;;11.40;1.90;;;19.50;93.30;;;;;;4890863;28;194491;-74
2022/10/08 11:56:50;;;;;;;12.93;2.08;;;19.90;94.30;;;;;;5026110;28;20049;-72
2022/10/08 11:59:43;;;;;;;11.60;1.75;;;20.30;92.50;;;;;;4968558;28;202943;-73
2022/10/08 12:02:21;;;;;;;9.00;1.60;;;20.70;91.80;;;;;;5015513;28;20061;-73
2022/10/08 12:04:49;;;;;;;12.25;1.70;;;20.60;91.20;;;;;;4982701;28;169798;-72
2022/10/08 12:07:32;;;;;;;11.15;1.80;;;20.70;92.80;;;;;;4981138;28;247523;-72
2022/10/08 12:10:33;;;;;;;7.78;1.50;;;21.00;90.50;;;;;;5032511;28;20045;-72
2022/10/08 12:13:01;;;;;;;11.63;1.70;;;21.00;90.10;;;;;;4978710;28;206696;-72
2022/10/08 12:15:28;;;;;;;12.70;1.55;;;21.30;91.80;;;;;;5027225;28;20053;-72
2022/10/08 12:18:00;;;;;;;11.60;1.80;;;21.80;92.10;;;;;;4986682;28;156698;-71
2022/10/08 12:20:32;;;;;;;10.75;1.73;;;22.10;91.60;;;;;;5003674;28;20057;-72
2022/10/08 12:23:08;;;;;;;14.07;1.70;;;20.70;89.90;;;;;;4983595;28;210865;-73
2022/10/08 12:25:37;;;;;;;10.07;1.60;;;18.90;91.80;;;;;;5021651;28;20050;-72
2022/10/08 12:28:18;;;;;;;13.75;1.70;;;18.30;93.60;;;;;;4983021;28;210587;-72
2022/10/08 12:30:46;;;;;;;13.60;1.80;;;18.20;93.00;;;;;;5022212;28;20552;-71
2022/10/08 12:33:13;;;;;;;12.90;1.95;;;19.20;93.30;;;;;;4985564;28;218458;-72
2022/10/08 12:36:11;;;;;;;13.60;1.88;;;19.70;91.90;;;;;;5035190;28;20049;-71
2022/10/08 12:39:05;;;;;;;11.75;1.52;;;20.50;91.90;;;;;;4956624;28;211372;-72
2022/10/08 12:41:54;;;;;;;10.18;1.50;;;21.50;91.40;;;;;;5000252;28;20057;-72
2022/10/08 12:44:32;;;;;;;11.93;1.60;;;21.70;90.60;;;;;;4932776;28;225519;-71
2022/10/08 12:47:19;;;;;;;10.77;1.50;;;21.70;90.50;;;;;;4984709;28;20054;-73
2022/10/08 12:49:59;;;;;;;11.02;1.48;;;22.40;90.50;;;;;;4962350;28;215403;-72
2022/10/08 12:52:31;;;;;;;8.27;1.27;;;21.70;87.10;;;;;;4957592;28;209070;-72
2022/10/08 12:55:00;;;;;;;11.73;1.52;;;20.70;88.70;;;;;;5001963;28;20061;-72
2022/10/08 12:57:29;;;;;;;12.98;1.73;;;19.40;90.20;;;;;;4937281;28;208212;-71
2022/10/08 12:59:57;;;;;;;9.82;1.45;;;18.90;90.80;;;;;;4986523;28;20050;-71
2022/10/08 13:02:35;;;;;;;10.80;1.50;;;19.80;91.60;;;;;;4934840;28;227233;-71